createdAt,value
2019-03-28T00:00:51.579Z,22.00
2019-03-28T00:03:19.765Z,16.00
2019-03-28T00:05:47.233Z,21.40
2019-03-28T00:08:15.111Z,24.40
2019-03-28T00:10:43.100Z,21.40
2019-03-28T00:13:10.630Z,24.20
2019-03-28T00:15:41.038Z,26.60
2019-03-28T00:18:08.633Z,18.80
2019-03-28T00:20:36.560Z,19.00
2019-03-28T00:23:41.151Z,22.80
2019-03-28T00:26:09.120Z,21.60
2019-03-28T00:28:37.034Z,22.00
2019-03-28T00:31:04.735Z,21.00
2019-03-28T00:33:32.487Z,15.60
2019-03-28T00:36:00.078Z,15.00
2019-03-28T00:38:27.576Z,22.80
2019-03-28T00:40:55.235Z,21.00
2019-03-28T00:43:23.216Z,16.40
2019-03-28T00:45:50.744Z,20.80
2019-03-28T00:48:21.009Z,22.20
2019-03-28T00:50:48.497Z,18.60
2019-03-28T00:53:19.146Z,19.20
2019-03-28T00:55:49.140Z,23.60
2019-03-28T00:58:16.905Z,18.20
2019-03-28T01:00:44.516Z,10.40
2019-03-28T01:03:13.675Z,12.40
2019-03-28T01:05:42.233Z,18.20
2019-03-28T01:08:13.430Z,18.00
2019-03-28T01:10:41.038Z,20.40
2019-03-28T01:13:08.877Z,13.60
2019-03-28T01:15:36.406Z,20.60
2019-03-28T01:18:03.995Z,18.00
2019-03-28T01:20:31.529Z,16.00
2019-03-28T01:22:59.139Z,18.00
2019-03-28T01:25:27.469Z,19.80
2019-03-28T01:27:55.071Z,20.60
2019-03-28T01:30:22.815Z,19.40
2019-03-28T01:32:53.203Z,23.20
2019-03-28T01:35:21.587Z,16.60
2019-03-28T01:37:49.114Z,23.20
2019-03-28T01:40:22.092Z,15.80
2019-03-28T01:42:47.212Z,21.20
2019-03-28T01:45:14.740Z,20.60
2019-03-28T01:47:43.172Z,18.00
2019-03-28T01:50:11.050Z,26.20
2019-03-28T01:52:45.576Z,23.60
2019-03-28T01:55:16.678Z,23.00
2019-03-28T01:57:44.484Z,21.00
2019-03-28T02:00:12.414Z,21.40
2019-03-28T02:02:40.112Z,16.40
2019-03-28T02:05:07.605Z,21.20
2019-03-28T02:07:35.467Z,20.20
2019-03-28T02:10:02.925Z,20.00
2019-03-28T02:12:31.137Z,29.60
2019-03-28T02:14:58.947Z,22.00
2019-03-28T02:17:26.867Z,21.00
2019-03-28T02:19:54.726Z,25.00
2019-03-28T02:22:22.582Z,20.60
2019-03-28T02:24:50.099Z,21.80
2019-03-28T02:27:23.815Z,24.60
2019-03-28T02:29:50.146Z,22.00
2019-03-28T02:32:17.757Z,23.60
2019-03-28T02:34:48.840Z,19.60
2019-03-28T02:37:14.530Z,19.20
2019-03-28T02:39:45.175Z,16.80
2019-03-28T02:42:13.093Z,20.20
2019-03-28T02:44:40.679Z,19.40
2019-03-28T02:47:08.227Z,20.60
2019-03-28T02:49:36.127Z,26.80
2019-03-28T02:52:06.641Z,18.00
2019-03-28T02:54:34.142Z,24.80
2019-03-28T02:57:01.975Z,18.40
2019-03-28T02:59:29.571Z,18.00
2019-03-28T03:01:57.020Z,23.20
2019-03-28T03:04:24.538Z,17.60
2019-03-28T03:06:52.342Z,24.60
2019-03-28T03:09:19.950Z,21.00
2019-03-28T03:11:47.480Z,19.80
2019-03-28T03:14:15.102Z,24.00
2019-03-28T03:16:42.922Z,16.20
2019-03-28T03:19:10.502Z,24.60
2019-03-28T03:21:38.125Z,18.60
2019-03-28T03:24:05.697Z,20.80
2019-03-28T03:26:34.917Z,21.40
2019-03-28T03:29:02.528Z,21.00
2019-03-28T03:31:30.058Z,22.80
2019-03-28T03:33:57.637Z,18.60
2019-03-28T03:36:25.512Z,21.60
2019-03-28T03:38:53.039Z,20.60
2019-03-28T03:41:20.489Z,16.40
2019-03-28T03:43:49.674Z,26.20
2019-03-28T03:46:17.300Z,20.20
2019-03-28T03:48:45.271Z,19.80
2019-03-28T03:51:12.826Z,24.40
2019-03-28T03:53:40.439Z,25.20
2019-03-28T03:56:08.011Z,22.40
2019-03-28T03:58:35.551Z,19.00
2019-03-28T04:01:03.073Z,21.00
2019-03-28T04:03:30.691Z,17.80
2019-03-28T04:05:58.444Z,18.60
2019-03-28T04:08:27.008Z,18.60
2019-03-28T04:10:54.731Z,20.60
2019-03-28T04:13:22.261Z,22.80
2019-03-28T04:15:50.063Z,23.60
2019-03-28T04:18:21.710Z,20.60
2019-03-28T04:20:46.903Z,25.00
2019-03-28T04:23:14.715Z,25.00
2019-03-28T04:25:43.051Z,12.80
2019-03-28T04:28:10.574Z,14.20
2019-03-28T04:30:38.241Z,24.80
2019-03-28T04:33:06.041Z,24.60
2019-03-28T04:35:33.637Z,23.80
2019-03-28T04:38:01.196Z,22.20
2019-03-28T04:40:28.790Z,22.60
2019-03-28T04:42:56.639Z,21.00
2019-03-28T04:45:24.245Z,21.80
2019-03-28T04:47:51.858Z,21.80
2019-03-28T04:50:19.671Z,24.80
2019-03-28T04:52:47.181Z,21.80
2019-03-28T04:55:15.044Z,19.40
2019-03-28T04:57:42.599Z,20.00
2019-03-28T05:00:10.482Z,20.40
2019-03-28T05:02:38.139Z,24.20
2019-03-28T05:05:06.405Z,22.60
2019-03-28T05:07:34.164Z,20.00
2019-03-28T05:10:01.981Z,23.80
2019-03-28T05:12:29.538Z,27.20
2019-03-28T05:14:57.084Z,24.20
2019-03-28T05:17:24.705Z,25.00
2019-03-28T05:19:52.588Z,23.20
2019-03-28T05:22:20.119Z,26.60
2019-03-28T05:24:47.706Z,23.60
2019-03-28T05:27:16.613Z,27.80
2019-03-28T05:29:44.935Z,24.00
2019-03-28T05:32:12.400Z,28.60
2019-03-28T05:34:40.057Z,21.20
2019-03-28T05:37:11.094Z,23.20
2019-03-28T05:39:38.588Z,26.20
2019-03-28T05:42:06.100Z,22.60
2019-03-28T05:44:33.898Z,21.20
2019-03-28T05:47:01.803Z,23.20
2019-03-28T05:49:29.414Z,14.80
2019-03-28T05:51:57.696Z,24.20
2019-03-28T05:54:25.263Z,29.80
2019-03-28T05:56:52.867Z,18.00
2019-03-28T05:59:20.709Z,26.20
2019-03-28T06:01:48.285Z,18.60
2019-03-28T06:04:15.770Z,21.40
2019-03-28T06:06:44.251Z,26.60
2019-03-28T06:09:11.829Z,27.40
2019-03-28T06:11:42.519Z,24.60
2019-03-28T06:14:10.644Z,19.40
2019-03-28T06:16:38.245Z,28.60
2019-03-28T06:19:05.769Z,26.80
2019-03-28T06:21:36.173Z,23.20
2019-03-28T06:24:03.804Z,20.60
2019-03-28T06:26:31.354Z,26.80
2019-03-28T06:28:59.159Z,29.20
2019-03-28T06:31:26.740Z,27.20
2019-03-28T06:33:54.281Z,27.40
2019-03-28T06:36:26.724Z,26.40
2019-03-28T06:38:54.382Z,22.80
2019-03-28T06:41:23.250Z,15.80
2019-03-28T06:43:52.273Z,25.60
2019-03-28T06:46:19.857Z,27.40
2019-03-28T06:48:47.431Z,27.60
2019-03-28T06:51:15.282Z,21.20
2019-03-28T06:53:45.594Z,22.20
2019-03-28T06:56:13.196Z,29.80
2019-03-28T06:58:40.994Z,20.20
2019-03-28T07:01:08.635Z,24.80
2019-03-28T07:03:36.612Z,18.60
2019-03-28T07:06:08.872Z,20.60
2019-03-28T07:08:38.997Z,19.80
2019-03-28T07:11:07.407Z,18.60
2019-03-28T07:13:35.889Z,19.40
2019-03-28T07:16:09.913Z,24.20
2019-03-28T07:18:37.586Z,16.80
2019-03-28T07:21:05.382Z,21.60
2019-03-28T07:23:33.008Z,22.00
2019-03-28T07:26:02.246Z,16.00
2019-03-28T07:28:30.129Z,21.40
2019-03-28T07:30:57.741Z,18.20
2019-03-28T07:33:25.307Z,20.60
2019-03-28T07:35:54.498Z,13.40
2019-03-28T07:38:22.050Z,22.40
2019-03-28T07:40:49.631Z,21.40
2019-03-28T07:43:19.136Z,20.20
2019-03-28T07:45:46.767Z,22.40
2019-03-28T07:48:14.341Z,17.80
2019-03-28T07:50:42.616Z,18.80
2019-03-28T07:53:10.293Z,18.00
2019-03-28T07:55:37.880Z,26.20
2019-03-28T07:58:07.527Z,15.20
2019-03-28T08:00:34.817Z,20.60
2019-03-28T08:03:04.286Z,22.00
2019-03-28T08:05:32.105Z,23.00
2019-03-28T08:07:59.680Z,26.60
2019-03-28T08:10:27.290Z,26.00
2019-03-28T08:12:55.057Z,25.60
2019-03-28T08:15:22.661Z,26.60
2019-03-28T08:17:50.350Z,27.00
2019-03-28T08:20:18.186Z,21.20
2019-03-28T08:22:45.757Z,23.40
2019-03-28T08:25:14.013Z,27.00
2019-03-28T08:27:41.945Z,17.20
2019-03-28T08:30:18.610Z,24.00
2019-03-28T08:32:55.168Z,21.40
2019-03-28T08:35:10.738Z,17.00
2019-03-28T08:37:38.291Z,18.20
2019-03-28T08:40:06.159Z,22.00
2019-03-28T08:42:34.070Z,21.40
2019-03-28T08:45:01.610Z,19.40
2019-03-28T08:47:29.169Z,21.00
2019-03-28T08:49:58.698Z,19.00
2019-03-28T08:52:28.461Z,22.20
2019-03-28T08:54:56.093Z,21.60
2019-03-28T08:57:30.121Z,23.00
2019-03-28T08:59:57.856Z,21.00
2019-03-28T09:02:25.679Z,21.80
2019-03-28T09:04:53.361Z,16.40
2019-03-28T09:07:20.917Z,12.80
2019-03-28T09:09:48.749Z,22.20
2019-03-28T09:12:17.473Z,20.60
2019-03-28T09:14:45.088Z,24.00
2019-03-28T09:17:16.704Z,13.80
2019-03-28T09:19:50.055Z,15.40
2019-03-28T09:22:19.576Z,16.20
2019-03-28T09:24:49.978Z,18.80
2019-03-28T09:27:19.586Z,17.20
2019-03-28T09:29:47.482Z,14.00
2019-03-28T09:32:15.019Z,13.80
2019-03-28T09:34:42.604Z,17.80
2019-03-28T09:37:10.500Z,16.80
2019-03-28T09:39:39.964Z,19.80
2019-03-28T09:42:07.517Z,17.60
2019-03-28T09:44:35.331Z,18.20
2019-03-28T09:47:02.891Z,15.20
2019-03-28T09:49:30.488Z,18.20
2019-03-28T09:52:02.159Z,15.60
2019-03-28T09:54:29.739Z,15.00
2019-03-28T09:56:57.372Z,17.60
2019-03-28T09:59:25.217Z,13.40
2019-03-28T10:01:57.052Z,15.40
2019-03-28T10:04:25.176Z,19.00
2019-03-28T10:06:54.030Z,19.60
2019-03-28T10:09:23.064Z,21.20
2019-03-28T10:11:50.716Z,19.60
2019-03-28T10:14:18.546Z,17.60
2019-03-28T10:16:53.151Z,18.40
2019-03-28T10:19:20.723Z,14.60
2019-03-28T10:21:51.256Z,13.80
2019-03-28T10:24:18.872Z,15.40
2019-03-28T10:26:46.427Z,15.00
2019-03-28T10:29:15.492Z,13.00
2019-03-28T10:31:43.141Z,15.60
2019-03-28T10:34:10.734Z,15.80
2019-03-28T10:36:38.608Z,12.00
2019-03-28T10:39:07.342Z,18.00
2019-03-28T10:41:34.939Z,12.20
2019-03-28T10:44:02.905Z,18.80
2019-03-28T10:46:30.384Z,12.20
2019-03-28T10:49:02.643Z,13.80
2019-03-28T10:51:30.546Z,21.80
2019-03-28T10:53:59.956Z,16.60
2019-03-28T10:56:27.504Z,24.00
2019-03-28T10:58:55.326Z,24.40
2019-03-28T11:01:36.408Z,21.80
2019-03-28T11:03:52.203Z,22.80
2019-03-28T11:06:20.119Z,15.00
2019-03-28T11:08:47.669Z,20.40
2019-03-28T11:11:18.206Z,20.00
2019-03-28T11:13:46.074Z,18.60
2019-03-28T11:16:15.192Z,16.20
2019-03-28T11:18:42.925Z,24.00
2019-03-28T11:21:10.748Z,20.60
2019-03-28T11:23:40.268Z,18.60
2019-03-28T11:26:08.187Z,19.80
2019-03-28T11:28:35.813Z,15.80
2019-03-28T11:31:03.352Z,18.80
2019-03-28T11:33:35.474Z,15.60
2019-03-28T11:36:03.070Z,16.80
2019-03-28T11:38:33.312Z,15.40
2019-03-28T11:41:05.449Z,17.60
2019-03-28T11:43:33.002Z,15.80
2019-03-28T11:46:00.627Z,18.20
2019-03-28T11:48:28.483Z,18.40
2019-03-28T11:50:56.214Z,16.80
2019-03-28T11:53:23.773Z,9.60
2019-03-28T11:55:51.646Z,12.60
2019-03-28T11:58:19.196Z,13.40
2019-03-28T12:00:50.778Z,15.00
2019-03-28T12:03:19.499Z,14.80
2019-03-28T12:05:52.942Z,11.40
2019-03-28T12:08:19.419Z,9.00
2019-03-28T12:10:47.324Z,11.20
2019-03-28T12:13:14.871Z,15.80
2019-03-28T12:15:42.434Z,11.40
2019-03-28T12:18:10.340Z,15.20
2019-03-28T12:20:37.966Z,16.00
2019-03-28T12:23:05.538Z,12.60
2019-03-28T12:25:33.522Z,12.40
2019-03-28T12:28:01.165Z,17.60
2019-03-28T12:30:28.683Z,11.60
2019-03-28T12:32:56.610Z,12.60
2019-03-28T12:35:24.141Z,10.00
2019-03-28T12:37:52.833Z,12.80
2019-03-28T12:40:22.957Z,14.40
2019-03-28T12:42:50.572Z,15.40
2019-03-28T12:45:20.040Z,11.00
2019-03-28T12:47:58.159Z,11.40
2019-03-28T12:50:20.016Z,17.20
2019-03-28T12:52:47.640Z,18.80
2019-03-28T12:55:15.527Z,16.00
2019-03-28T12:57:43.132Z,15.20
2019-03-28T13:00:10.751Z,19.20
2019-03-28T13:02:40.579Z,13.00
2019-03-28T13:05:07.908Z,15.80
2019-03-28T13:07:35.548Z,13.00
2019-03-28T13:10:03.399Z,19.40
2019-03-28T13:12:31.023Z,16.00
2019-03-28T13:14:58.607Z,16.00
2019-03-28T13:17:26.505Z,15.40
2019-03-28T13:19:57.007Z,19.20
2019-03-28T13:22:24.548Z,11.20
2019-03-28T13:24:52.376Z,15.00
2019-03-28T13:27:19.957Z,17.80
2019-03-28T13:29:47.667Z,18.60
2019-03-28T13:32:15.506Z,10.80
2019-03-28T13:34:43.144Z,16.80
2019-03-28T13:37:10.742Z,13.00
2019-03-28T13:39:38.676Z,12.80
2019-03-28T13:42:09.999Z,12.40
2019-03-28T13:44:37.572Z,16.40
2019-03-28T13:47:08.168Z,12.60
2019-03-28T13:49:35.803Z,15.00
2019-03-28T13:52:05.033Z,12.60
2019-03-28T13:54:33.643Z,13.60
2019-03-28T13:57:02.399Z,14.60
2019-03-28T13:59:30.013Z,15.00
2019-03-28T14:01:57.941Z,17.60
2019-03-28T14:04:25.549Z,18.60
2019-03-28T14:06:53.166Z,8.60
2019-03-28T14:09:23.294Z,16.00
2019-03-28T14:11:50.207Z,9.40
2019-03-28T14:14:23.968Z,16.60
2019-03-28T14:16:53.301Z,12.40
2019-03-28T14:19:20.890Z,15.60
2019-03-28T14:21:48.429Z,17.60
2019-03-28T14:24:17.757Z,12.00
2019-03-28T14:26:45.334Z,10.00
2019-03-28T14:29:15.189Z,10.20
2019-03-28T14:31:43.370Z,15.00
2019-03-28T14:34:10.907Z,15.20
2019-03-28T14:36:38.567Z,12.40
2019-03-28T14:39:07.532Z,19.40
2019-03-28T14:41:35.022Z,15.00
2019-03-28T14:44:02.758Z,12.00
2019-03-28T14:46:32.869Z,13.00
2019-03-28T14:49:00.684Z,11.20
2019-03-28T14:51:28.339Z,9.60
2019-03-28T14:53:58.006Z,16.80
2019-03-28T14:56:27.899Z,15.20
2019-03-28T14:58:59.539Z,14.60
2019-03-28T15:01:27.403Z,10.00
2019-03-28T15:04:00.690Z,14.20
2019-03-28T15:06:28.415Z,11.60
2019-03-28T15:08:59.045Z,15.60
2019-03-28T15:11:27.066Z,13.00
2019-03-28T15:13:57.015Z,14.60
2019-03-28T15:16:24.830Z,13.00
2019-03-28T15:18:56.048Z,11.80
2019-03-28T15:21:23.207Z,14.20
2019-03-28T15:23:51.111Z,11.60
2019-03-28T15:26:21.152Z,13.20
2019-03-28T15:28:50.421Z,13.40
2019-03-28T15:31:17.884Z,13.00
2019-03-28T15:33:45.545Z,15.20
2019-03-28T15:36:13.378Z,13.80
2019-03-28T15:38:42.137Z,13.00
2019-03-28T15:41:09.747Z,12.40
2019-03-28T15:43:37.593Z,13.40
2019-03-28T15:46:05.549Z,15.00
2019-03-28T15:48:35.579Z,15.40
2019-03-28T15:51:04.489Z,18.00
2019-03-28T15:53:33.253Z,12.40
2019-03-28T15:56:00.766Z,14.80
2019-03-28T15:58:32.290Z,14.60
2019-03-28T16:01:18.084Z,8.60
2019-03-28T16:03:53.357Z,15.80
2019-03-28T16:06:18.540Z,15.60
2019-03-28T16:08:51.085Z,13.60
2019-03-28T16:11:18.661Z,13.80
2019-03-28T16:13:46.238Z,11.60
2019-03-28T16:16:13.878Z,12.60
2019-03-28T16:18:44.826Z,12.60
2019-03-28T16:21:12.362Z,12.40
2019-03-28T16:23:42.939Z,13.00
2019-03-28T16:26:12.800Z,12.20
2019-03-28T16:28:40.730Z,10.00
2019-03-28T16:31:10.136Z,14.00
2019-03-28T16:33:38.042Z,11.60
2019-03-28T16:36:09.279Z,9.40
2019-03-28T16:38:36.868Z,12.20
2019-03-28T16:41:04.725Z,13.00
2019-03-28T16:43:32.301Z,9.00
2019-03-28T16:45:59.918Z,9.20
2019-03-28T16:48:30.263Z,10.80
2019-03-28T16:50:57.884Z,3.60
2019-03-28T16:53:28.206Z,10.80
2019-03-28T16:55:56.237Z,10.00
2019-03-28T16:58:23.778Z,6.40
2019-03-28T17:00:51.722Z,10.40
2019-03-28T17:03:22.530Z,12.60
2019-03-28T17:05:50.122Z,10.40
2019-03-28T17:08:17.978Z,13.20
2019-03-28T17:10:47.097Z,9.00
2019-03-28T17:13:14.624Z,8.80
2019-03-28T17:15:43.346Z,9.00
2019-03-28T17:18:11.183Z,8.20
2019-03-28T17:20:43.827Z,10.40
2019-03-28T17:23:11.449Z,8.60
2019-03-28T17:25:40.229Z,6.00
2019-03-28T17:28:08.167Z,8.60
2019-03-28T17:30:41.010Z,9.80
2019-03-28T17:33:06.247Z,7.00
2019-03-28T17:35:33.865Z,9.40
2019-03-28T17:38:01.828Z,5.20
2019-03-28T17:40:29.457Z,7.00
2019-03-28T17:43:00.146Z,9.00
2019-03-28T17:45:28.063Z,8.20
2019-03-28T17:47:55.703Z,8.60
2019-03-28T17:50:23.330Z,6.80
2019-03-28T17:52:51.190Z,8.60
2019-03-28T17:55:19.795Z,7.40
2019-03-28T17:57:47.552Z,6.80
2019-03-28T18:00:15.397Z,6.60
2019-03-28T18:02:43.420Z,6.80
2019-03-28T18:05:15.263Z,5.60
2019-03-28T18:07:40.546Z,17.20
2019-03-28T18:10:11.338Z,9.00
2019-03-28T18:12:39.655Z,6.80
2019-03-28T18:15:07.533Z,6.20
2019-03-28T18:17:35.045Z,6.60
2019-03-28T18:20:02.641Z,6.20
2019-03-28T18:22:30.621Z,8.20
2019-03-28T18:25:07.924Z,9.60
2019-03-28T18:27:35.634Z,9.20
2019-03-28T18:30:05.527Z,7.00
2019-03-28T18:32:34.118Z,7.40
2019-03-28T18:35:05.792Z,9.00
2019-03-28T18:37:31.199Z,13.00
2019-03-28T18:39:58.794Z,6.80
2019-03-28T18:42:26.346Z,9.20
2019-03-28T18:44:57.777Z,13.00
2019-03-28T18:47:27.243Z,13.40
2019-03-28T18:49:55.217Z,14.60
2019-03-28T18:52:23.054Z,16.00
2019-03-28T18:54:50.698Z,13.00
2019-03-28T18:57:19.742Z,9.60
2019-03-28T18:59:50.656Z,10.20
2019-03-28T19:02:18.204Z,12.60
2019-03-28T19:04:45.807Z,14.60
2019-03-28T19:07:13.670Z,12.00
2019-03-28T19:09:41.330Z,12.00
2019-03-28T19:12:11.148Z,11.80
2019-03-28T19:14:41.864Z,15.20
2019-03-28T19:17:09.551Z,22.00
2019-03-28T19:19:39.500Z,14.60
2019-03-28T19:22:09.309Z,5.20
2019-03-28T19:24:36.919Z,14.60
2019-03-28T19:27:04.503Z,12.00
2019-03-28T19:29:32.372Z,13.60
2019-03-28T19:32:00.109Z,13.00
2019-03-28T19:34:29.993Z,14.20
2019-03-28T19:36:57.896Z,12.00
2019-03-28T19:39:26.401Z,15.80
2019-03-28T19:42:04.492Z,11.40
2019-03-28T19:44:31.187Z,13.00
2019-03-28T19:46:58.832Z,12.40
2019-03-28T19:49:26.479Z,15.60
2019-03-28T19:51:56.239Z,15.60
2019-03-28T19:54:23.871Z,13.60
2019-03-28T19:56:51.519Z,12.20
2019-03-28T19:59:19.396Z,11.20
2019-03-28T20:01:49.830Z,13.40
2019-03-28T20:04:19.223Z,15.00
2019-03-28T20:06:50.254Z,12.40
2019-03-28T20:09:18.488Z,15.40
2019-03-28T20:11:46.138Z,10.40
2019-03-28T20:14:14.032Z,9.60
2019-03-28T20:16:42.856Z,29.60
2019-03-28T20:19:12.967Z,18.40
2019-03-28T20:21:43.576Z,16.80
2019-03-28T20:24:11.197Z,15.40
2019-03-28T20:26:41.070Z,13.00
2019-03-28T20:29:09.286Z,16.00
2019-03-28T20:31:38.070Z,17.60
2019-03-28T20:34:05.648Z,11.60
2019-03-28T20:36:38.563Z,11.20
2019-03-28T20:39:04.285Z,12.60
2019-03-28T20:41:32.429Z,14.80
2019-03-28T20:44:11.709Z,18.00
2019-03-28T20:46:41.034Z,12.80
2019-03-28T20:49:10.998Z,14.00
2019-03-28T20:51:38.953Z,14.20
2019-03-28T20:54:08.631Z,13.00
2019-03-28T20:56:36.503Z,16.40
2019-03-28T20:59:05.465Z,17.20
2019-03-28T21:01:33.393Z,11.40
2019-03-28T21:04:01.017Z,16.80
2019-03-28T21:06:28.820Z,15.40
2019-03-28T21:08:56.459Z,12.60
2019-03-28T21:11:24.087Z,15.00
2019-03-28T21:13:51.827Z,14.20
2019-03-28T21:16:19.456Z,9.40
2019-03-28T21:18:47.417Z,13.00
2019-03-28T21:21:15.769Z,12.80
2019-03-28T21:23:46.474Z,16.80
2019-03-28T21:26:15.958Z,15.40
2019-03-28T21:28:47.530Z,15.20
2019-03-28T21:31:16.171Z,14.20
2019-03-28T21:33:44.258Z,14.20
2019-03-28T21:36:12.530Z,16.60
2019-03-28T21:38:40.411Z,12.40
2019-03-28T21:41:08.021Z,13.00
2019-03-28T21:43:36.879Z,17.20
2019-03-28T21:46:04.440Z,18.00
2019-03-28T21:48:33.350Z,14.40
2019-03-28T21:51:01.222Z,13.40
2019-03-28T21:53:28.689Z,15.80
2019-03-28T21:55:58.169Z,17.60
2019-03-28T21:58:28.727Z,12.60
2019-03-28T22:00:56.363Z,15.00
2019-03-28T22:03:25.898Z,16.80
2019-03-28T22:05:55.195Z,18.60
2019-03-28T22:08:22.753Z,14.20
2019-03-28T22:10:50.363Z,13.00
2019-03-28T22:13:19.367Z,16.00
2019-03-28T22:15:47.588Z,11.60
2019-03-28T22:18:16.494Z,18.00
2019-03-28T22:20:44.395Z,13.00
2019-03-28T22:23:13.583Z,15.20
2019-03-28T22:25:41.347Z,13.40
2019-03-28T22:28:09.250Z,17.20
2019-03-28T22:30:37.141Z,15.80
2019-03-28T22:33:04.771Z,14.20
2019-03-28T22:35:33.719Z,17.00
2019-03-28T22:38:02.391Z,16.00
2019-03-28T22:40:30.315Z,13.80
2019-03-28T22:42:58.616Z,6.20
2019-03-28T22:45:26.511Z,19.60
2019-03-28T22:47:54.471Z,14.40
2019-03-28T22:50:22.060Z,15.60
2019-03-28T22:52:49.580Z,15.00
2019-03-28T22:55:17.416Z,15.40
2019-03-28T22:57:44.995Z,12.80
2019-03-28T23:00:12.661Z,12.60
2019-03-28T23:02:40.508Z,15.40
2019-03-28T23:05:08.049Z,13.00
2019-03-28T23:07:35.573Z,18.00
2019-03-28T23:10:03.484Z,10.80
2019-03-28T23:12:31.043Z,10.80
2019-03-28T23:15:01.013Z,13.40
2019-03-28T23:17:31.950Z,12.80
2019-03-28T23:19:59.554Z,14.20
2019-03-28T23:22:27.179Z,13.00
2019-03-28T23:24:54.796Z,14.80
2019-03-28T23:27:24.838Z,17.60
2019-03-28T23:29:52.452Z,17.60
2019-03-28T23:32:24.628Z,13.80
2019-03-28T23:34:52.170Z,13.80
2019-03-28T23:37:24.910Z,13.40
2019-03-28T23:39:52.710Z,12.40
2019-03-28T23:42:20.248Z,16.80
2019-03-28T23:44:47.888Z,13.80
2019-03-28T23:47:17.410Z,13.20
2019-03-28T23:49:45.306Z,12.20
2019-03-28T23:52:12.873Z,11.40
2019-03-28T23:54:40.505Z,13.00
2019-03-28T23:57:11.234Z,12.60
2019-03-28T23:59:39.254Z,14.20
